sensor_id;sensor_type;location;lat;lon;timestamp;P1;durP1;ratioP1;P2;durP2;ratioP2
71343;SDS011;59146;43.850;25.948;2023-04-24T00:02:19;12.85;;;4.70;;
71343;SDS011;59146;43.850;25.948;2023-04-24T00:04:45;6.88;;;4.57;;
71343;SDS011;59146;43.850;25.948;2023-04-24T00:07:11;9.32;;;5.07;;
71343;SDS011;59146;43.850;25.948;2023-04-24T00:09:38;11.57;;;5.32;;
71343;SDS011;59146;43.850;25.948;2023-04-24T00:12:03;8.82;;;4.65;;
71343;SDS011;59146;43.850;25.948;2023-04-24T00:14:30;10.80;;;5.28;;
71343;SDS011;59146;43.850;25.948;2023-04-24T00:16:56;10.73;;;5.28;;
71343;SDS011;59146;43.850;25.948;2023-04-24T00:19:21;11.63;;;5.13;;
71343;SDS011;59146;43.850;25.948;2023-04-24T00:21:47;9.73;;;5.22;;
71343;SDS011;59146;43.850;25.948;2023-04-24T00:24:15;8.05;;;5.20;;
71343;SDS011;59146;43.850;25.948;2023-04-24T00:26:43;6.53;;;4.97;;
71343;SDS011;59146;43.850;25.948;2023-04-24T00:29:09;9.63;;;5.05;;
71343;SDS011;59146;43.850;25.948;2023-04-24T00:31:34;10.57;;;5.45;;
71343;SDS011;59146;43.850;25.948;2023-04-24T00:34:00;10.95;;;5.25;;
71343;SDS011;59146;43.850;25.948;2023-04-24T00:36:27;8.93;;;5.18;;
71343;SDS011;59146;43.850;25.948;2023-04-24T00:38:53;9.07;;;5.43;;
71343;SDS011;59146;43.850;25.948;2023-04-24T00:41:19;11.07;;;5.07;;
71343;SDS011;59146;43.850;25.948;2023-04-24T00:43:45;13.75;;;5.35;;
71343;SDS011;59146;43.850;25.948;2023-04-24T00:46:11;6.30;;;4.88;;
71343;SDS011;59146;43.850;25.948;2023-04-24T00:48:38;11.32;;;5.20;;
71343;SDS011;59146;43.850;25.948;2023-04-24T00:51:04;9.43;;;5.03;;
71343;SDS011;59146;43.850;25.948;2023-04-24T00:53:30;10.32;;;4.40;;
71343;SDS011;59146;43.850;25.948;2023-04-24T00:55:55;19.83;;;5.72;;
71343;SDS011;59146;43.850;25.948;2023-04-24T00:58:21;12.30;;;5.63;;
71343;SDS011;59146;43.850;25.948;2023-04-24T01:00:48;13.95;;;6.60;;
71343;SDS011;59146;43.850;25.948;2023-04-24T01:03:15;13.38;;;6.43;;
71343;SDS011;59146;43.850;25.948;2023-04-24T01:05:41;10.23;;;5.50;;
71343;SDS011;59146;43.850;25.948;2023-04-24T01:08:06;11.00;;;5.93;;
71343;SDS011;59146;43.850;25.948;2023-04-24T01:10:33;9.77;;;5.03;;
71343;SDS011;59146;43.850;25.948;2023-04-24T01:12:59;13.27;;;6.07;;
71343;SDS011;59146;43.850;25.948;2023-04-24T01:15:25;9.45;;;5.72;;
71343;SDS011;59146;43.850;25.948;2023-04-24T01:17:50;11.27;;;5.05;;
71343;SDS011;59146;43.850;25.948;2023-04-24T01:20:16;11.90;;;5.97;;
71343;SDS011;59146;43.850;25.948;2023-04-24T01:22:42;6.90;;;5.63;;
71343;SDS011;59146;43.850;25.948;2023-04-24T01:25:08;10.65;;;4.78;;
71343;SDS011;59146;43.850;25.948;2023-04-24T01:27:33;10.80;;;5.30;;
71343;SDS011;59146;43.850;25.948;2023-04-24T01:29:59;9.55;;;4.70;;
71343;SDS011;59146;43.850;25.948;2023-04-24T01:32:25;11.45;;;5.10;;
71343;SDS011;59146;43.850;25.948;2023-04-24T01:34:51;10.80;;;4.85;;
71343;SDS011;59146;43.850;25.948;2023-04-24T01:37:16;11.73;;;4.85;;
71343;SDS011;59146;43.850;25.948;2023-04-24T01:39:43;13.05;;;5.88;;
71343;SDS011;59146;43.850;25.948;2023-04-24T01:42:09;8.07;;;4.78;;
71343;SDS011;59146;43.850;25.948;2023-04-24T01:44:34;7.13;;;4.45;;
71343;SDS011;59146;43.850;25.948;2023-04-24T01:47:00;11.10;;;5.47;;
71343;SDS011;59146;43.850;25.948;2023-04-24T01:49:26;10.77;;;5.75;;
71343;SDS011;59146;43.850;25.948;2023-04-24T01:51:52;11.07;;;4.95;;
71343;SDS011;59146;43.850;25.948;2023-04-24T01:54:17;8.43;;;5.03;;
71343;SDS011;59146;43.850;25.948;2023-04-24T01:56:43;11.55;;;4.43;;
71343;SDS011;59146;43.850;25.948;2023-04-24T01:59:09;8.98;;;5.20;;
71343;SDS011;59146;43.850;25.948;2023-04-24T02:01:36;9.02;;;5.10;;
71343;SDS011;59146;43.850;25.948;2023-04-24T02:04:02;11.95;;;4.60;;
71343;SDS011;59146;43.850;25.948;2023-04-24T02:06:31;10.20;;;5.30;;
71343;SDS011;59146;43.850;25.948;2023-04-24T02:08:58;7.38;;;5.47;;
71343;SDS011;59146;43.850;25.948;2023-04-24T02:11:24;11.55;;;5.97;;
71343;SDS011;59146;43.850;25.948;2023-04-24T02:13:49;13.27;;;5.70;;
71343;SDS011;59146;43.850;25.948;2023-04-24T02:16:16;12.63;;;6.18;;
71343;SDS011;59146;43.850;25.948;2023-04-24T02:18:41;12.27;;;5.50;;
71343;SDS011;59146;43.850;25.948;2023-04-24T02:21:07;11.85;;;5.90;;
71343;SDS011;59146;43.850;25.948;2023-04-24T02:23:32;14.13;;;5.68;;
71343;SDS011;59146;43.850;25.948;2023-04-24T02:25:58;9.02;;;5.65;;
71343;SDS011;59146;43.850;25.948;2023-04-24T02:28:23;7.95;;;5.28;;
71343;SDS011;59146;43.850;25.948;2023-04-24T02:30:48;11.23;;;5.32;;
71343;SDS011;59146;43.850;25.948;2023-04-24T02:33:15;10.80;;;5.30;;
71343;SDS011;59146;43.850;25.948;2023-04-24T02:35:41;9.27;;;5.18;;
71343;SDS011;59146;43.850;25.948;2023-04-24T02:38:06;9.77;;;4.60;;
71343;SDS011;59146;43.850;25.948;2023-04-24T02:40:31;15.88;;;5.63;;
71343;SDS011;59146;43.850;25.948;2023-04-24T02:42:57;15.80;;;6.05;;
71343;SDS011;59146;43.850;25.948;2023-04-24T02:45:22;11.23;;;5.80;;
71343;SDS011;59146;43.850;25.948;2023-04-24T02:47:48;10.50;;;6.30;;
71343;SDS011;59146;43.850;25.948;2023-04-24T02:50:13;9.82;;;6.10;;
71343;SDS011;59146;43.850;25.948;2023-04-24T02:52:38;12.52;;;6.90;;
71343;SDS011;59146;43.850;25.948;2023-04-24T02:55:04;9.43;;;6.38;;
71343;SDS011;59146;43.850;25.948;2023-04-24T02:57:30;10.95;;;6.70;;
71343;SDS011;59146;43.850;25.948;2023-04-24T02:59:55;8.05;;;6.15;;
71343;SDS011;59146;43.850;25.948;2023-04-24T03:02:21;18.73;;;7.05;;
71343;SDS011;59146;43.850;25.948;2023-04-24T03:04:46;8.45;;;6.07;;
71343;SDS011;59146;43.850;25.948;2023-04-24T03:07:13;14.35;;;6.32;;
71343;SDS011;59146;43.850;25.948;2023-04-24T03:09:39;13.23;;;5.13;;
71343;SDS011;59146;43.850;25.948;2023-04-24T03:12:05;10.63;;;5.88;;
71343;SDS011;59146;43.850;25.948;2023-04-24T03:14:31;10.50;;;6.78;;
71343;SDS011;59146;43.850;25.948;2023-04-24T03:16:57;12.93;;;6.68;;
71343;SDS011;59146;43.850;25.948;2023-04-24T03:19:22;9.48;;;6.47;;
71343;SDS011;59146;43.850;25.948;2023-04-24T03:21:48;10.93;;;6.68;;
71343;SDS011;59146;43.850;25.948;2023-04-24T03:24:13;12.10;;;6.30;;
71343;SDS011;59146;43.850;25.948;2023-04-24T03:26:39;19.27;;;6.63;;
71343;SDS011;59146;43.850;25.948;2023-04-24T03:29:04;14.38;;;6.38;;
71343;SDS011;59146;43.850;25.948;2023-04-24T03:31:30;15.98;;;6.55;;
71343;SDS011;59146;43.850;25.948;2023-04-24T03:33:55;15.80;;;6.82;;
71343;SDS011;59146;43.850;25.948;2023-04-24T03:36:21;15.73;;;6.75;;
71343;SDS011;59146;43.850;25.948;2023-04-24T03:38:46;11.73;;;6.97;;
71343;SDS011;59146;43.850;25.948;2023-04-24T03:41:11;16.08;;;7.25;;
71343;SDS011;59146;43.850;25.948;2023-04-24T03:43:37;15.38;;;7.53;;
71343;SDS011;59146;43.850;25.948;2023-04-24T03:46:03;17.58;;;7.18;;
71343;SDS011;59146;43.850;25.948;2023-04-24T03:48:28;14.38;;;7.60;;
71343;SDS011;59146;43.850;25.948;2023-04-24T03:50:54;14.90;;;6.80;;
71343;SDS011;59146;43.850;25.948;2023-04-24T03:53:20;10.15;;;7.38;;
71343;SDS011;59146;43.850;25.948;2023-04-24T03:55:45;16.65;;;6.70;;
71343;SDS011;59146;43.850;25.948;2023-04-24T03:58:11;16.67;;;6.72;;
71343;SDS011;59146;43.850;25.948;2023-04-24T04:00:36;17.65;;;6.53;;
71343;SDS011;59146;43.850;25.948;2023-04-24T04:03:02;17.98;;;6.57;;
71343;SDS011;59146;43.850;25.948;2023-04-24T04:05:28;9.70;;;5.93;;
71343;SDS011;59146;43.850;25.948;2023-04-24T04:07:54;11.13;;;6.10;;
71343;SDS011;59146;43.850;25.948;2023-04-24T04:10:20;13.07;;;5.85;;
71343;SDS011;59146;43.850;25.948;2023-04-24T04:12:45;12.80;;;5.60;;
71343;SDS011;59146;43.850;25.948;2023-04-24T04:15:11;17.08;;;5.63;;
71343;SDS011;59146;43.850;25.948;2023-04-24T04:17:36;19.25;;;5.90;;
71343;SDS011;59146;43.850;25.948;2023-04-24T04:20:03;17.60;;;5.50;;
71343;SDS011;59146;43.850;25.948;2023-04-24T04:22:33;13.80;;;5.32;;
71343;SDS011;59146;43.850;25.948;2023-04-24T04:24:59;25.30;;;6.45;;
71343;SDS011;59146;43.850;25.948;2023-04-24T04:27:24;40.92;;;7.18;;
71343;SDS011;59146;43.850;25.948;2023-04-24T04:29:50;32.92;;;7.53;;
71343;SDS011;59146;43.850;25.948;2023-04-24T04:32:16;11.93;;;6.65;;
71343;SDS011;59146;43.850;25.948;2023-04-24T04:34:41;34.42;;;6.30;;
71343;SDS011;59146;43.850;25.948;2023-04-24T04:37:07;70.57;;;10.30;;
71343;SDS011;59146;43.850;25.948;2023-04-24T04:39:33;32.10;;;7.47;;
71343;SDS011;59146;43.850;25.948;2023-04-24T04:41:59;31.67;;;7.32;;
71343;SDS011;59146;43.850;25.948;2023-04-24T04:44:25;29.10;;;7.20;;
71343;SDS011;59146;43.850;25.948;2023-04-24T04:46:53;17.95;;;6.82;;
71343;SDS011;59146;43.850;25.948;2023-04-24T04:49:21;21.45;;;7.00;;
71343;SDS011;59146;43.850;25.948;2023-04-24T04:51:48;31.48;;;7.63;;
71343;SDS011;59146;43.850;25.948;2023-04-24T04:54:14;21.25;;;7.32;;
71343;SDS011;59146;43.850;25.948;2023-04-24T04:56:40;44.78;;;8.95;;
71343;SDS011;59146;43.850;25.948;2023-04-24T04:59:06;31.05;;;8.45;;
71343;SDS011;59146;43.850;25.948;2023-04-24T05:01:31;67.68;;;11.45;;
71343;SDS011;59146;43.850;25.948;2023-04-24T05:03:57;28.38;;;7.80;;
71343;SDS011;59146;43.850;25.948;2023-04-24T05:06:22;23.08;;;8.13;;
71343;SDS011;59146;43.850;25.948;2023-04-24T05:08:47;47.67;;;8.20;;
71343;SDS011;59146;43.850;25.948;2023-04-24T05:11:13;15.48;;;5.80;;
71343;SDS011;59146;43.850;25.948;2023-04-24T05:13:39;10.73;;;5.70;;
71343;SDS011;59146;43.850;25.948;2023-04-24T05:16:05;24.20;;;6.68;;
71343;SDS011;59146;43.850;25.948;2023-04-24T05:18:30;15.40;;;6.20;;
71343;SDS011;59146;43.850;25.948;2023-04-24T05:20:56;13.98;;;6.97;;
71343;SDS011;59146;43.850;25.948;2023-04-24T05:23:21;12.30;;;6.60;;
71343;SDS011;59146;43.850;25.948;2023-04-24T05:25:47;21.48;;;6.88;;
71343;SDS011;59146;43.850;25.948;2023-04-24T05:28:12;13.68;;;6.82;;
71343;SDS011;59146;43.850;25.948;2023-04-24T05:30:38;23.45;;;7.13;;
71343;SDS011;59146;43.850;25.948;2023-04-24T05:33:03;38.80;;;7.65;;
71343;SDS011;59146;43.850;25.948;2023-04-24T05:35:28;17.25;;;7.38;;
71343;SDS011;59146;43.850;25.948;2023-04-24T05:37:54;20.35;;;7.47;;
71343;SDS011;59146;43.850;25.948;2023-04-24T05:40:19;22.88;;;8.00;;
71343;SDS011;59146;43.850;25.948;2023-04-24T05:42:45;40.20;;;9.57;;
71343;SDS011;59146;43.850;25.948;2023-04-24T05:45:10;29.25;;;7.55;;
71343;SDS011;59146;43.850;25.948;2023-04-24T05:47:41;26.10;;;7.68;;
71343;SDS011;59146;43.850;25.948;2023-04-24T05:50:07;18.10;;;6.93;;
71343;SDS011;59146;43.850;25.948;2023-04-24T05:52:32;17.02;;;6.97;;
71343;SDS011;59146;43.850;25.948;2023-04-24T05:54:58;20.42;;;7.75;;
71343;SDS011;59146;43.850;25.948;2023-04-24T05:57:23;19.05;;;7.07;;
71343;SDS011;59146;43.850;25.948;2023-04-24T05:59:49;29.23;;;7.43;;
71343;SDS011;59146;43.850;25.948;2023-04-24T06:02:15;31.27;;;6.63;;
71343;SDS011;59146;43.850;25.948;2023-04-24T06:04:40;31.17;;;7.53;;
71343;SDS011;59146;43.850;25.948;2023-04-24T06:07:06;18.90;;;7.00;;
71343;SDS011;59146;43.850;25.948;2023-04-24T06:09:31;15.40;;;6.45;;
71343;SDS011;59146;43.850;25.948;2023-04-24T06:11:57;23.48;;;7.18;;
71343;SDS011;59146;43.850;25.948;2023-04-24T06:14:23;16.75;;;6.60;;
71343;SDS011;59146;43.850;25.948;2023-04-24T06:16:49;17.70;;;6.05;;
71343;SDS011;59146;43.850;25.948;2023-04-24T06:19:14;18.00;;;5.47;;
71343;SDS011;59146;43.850;25.948;2023-04-24T06:21:39;12.65;;;5.10;;
71343;SDS011;59146;43.850;25.948;2023-04-24T06:24:05;17.35;;;5.80;;
71343;SDS011;59146;43.850;25.948;2023-04-24T06:26:30;16.27;;;5.97;;
71343;SDS011;59146;43.850;25.948;2023-04-24T06:28:56;13.27;;;5.18;;
71343;SDS011;59146;43.850;25.948;2023-04-24T06:31:24;17.13;;;5.55;;
71343;SDS011;59146;43.850;25.948;2023-04-24T06:33:49;10.70;;;4.63;;
71343;SDS011;59146;43.850;25.948;2023-04-24T06:36:15;15.40;;;5.00;;
71343;SDS011;59146;43.850;25.948;2023-04-24T06:38:41;12.02;;;4.60;;
71343;SDS011;59146;43.850;25.948;2023-04-24T06:41:06;16.70;;;4.65;;
71343;SDS011;59146;43.850;25.948;2023-04-24T06:43:32;24.92;;;4.70;;
71343;SDS011;59146;43.850;25.948;2023-04-24T06:45:58;17.42;;;5.28;;
71343;SDS011;59146;43.850;25.948;2023-04-24T06:48:24;15.23;;;5.10;;
71343;SDS011;59146;43.850;25.948;2023-04-24T06:50:50;18.80;;;4.85;;
71343;SDS011;59146;43.850;25.948;2023-04-24T06:53:16;12.57;;;5.03;;
71343;SDS011;59146;43.850;25.948;2023-04-24T06:55:42;21.77;;;5.80;;
71343;SDS011;59146;43.850;25.948;2023-04-24T06:58:09;23.63;;;5.15;;
71343;SDS011;59146;43.850;25.948;2023-04-24T07:00:35;13.90;;;4.32;;
71343;SDS011;59146;43.850;25.948;2023-04-24T07:03:01;27.65;;;5.22;;
71343;SDS011;59146;43.850;25.948;2023-04-24T07:05:27;10.90;;;3.78;;
71343;SDS011;59146;43.850;25.948;2023-04-24T07:07:53;9.93;;;4.60;;
71343;SDS011;59146;43.850;25.948;2023-04-24T07:10:18;11.05;;;3.90;;
71343;SDS011;59146;43.850;25.948;2023-04-24T07:12:45;9.45;;;4.97;;
71343;SDS011;59146;43.850;25.948;2023-04-24T07:15:11;26.25;;;5.32;;
71343;SDS011;59146;43.850;25.948;2023-04-24T07:17:36;10.13;;;4.40;;
71343;SDS011;59146;43.850;25.948;2023-04-24T07:20:03;8.13;;;3.97;;
71343;SDS011;59146;43.850;25.948;2023-04-24T07:22:30;17.77;;;5.60;;
71343;SDS011;59146;43.850;25.948;2023-04-24T07:24:55;12.43;;;4.88;;
71343;SDS011;59146;43.850;25.948;2023-04-24T07:27:21;12.25;;;4.95;;
71343;SDS011;59146;43.850;25.948;2023-04-24T07:29:46;11.45;;;4.07;;
71343;SDS011;59146;43.850;25.948;2023-04-24T07:32:12;10.43;;;3.85;;
71343;SDS011;59146;43.850;25.948;2023-04-24T07:34:37;9.88;;;4.07;;
71343;SDS011;59146;43.850;25.948;2023-04-24T07:37:03;9.43;;;3.85;;
71343;SDS011;59146;43.850;25.948;2023-04-24T07:39:28;9.77;;;3.83;;
71343;SDS011;59146;43.850;25.948;2023-04-24T07:41:54;11.45;;;4.32;;
71343;SDS011;59146;43.850;25.948;2023-04-24T07:44:19;11.38;;;4.18;;
71343;SDS011;59146;43.850;25.948;2023-04-24T07:46:45;18.33;;;4.70;;
71343;SDS011;59146;43.850;25.948;2023-04-24T07:49:10;20.20;;;5.00;;
71343;SDS011;59146;43.850;25.948;2023-04-24T07:51:36;12.40;;;4.70;;
71343;SDS011;59146;43.850;25.948;2023-04-24T07:54:03;21.02;;;5.45;;
71343;SDS011;59146;43.850;25.948;2023-04-24T07:56:31;14.50;;;4.25;;
71343;SDS011;59146;43.850;25.948;2023-04-24T07:58:58;20.95;;;5.40;;
71343;SDS011;59146;43.850;25.948;2023-04-24T08:01:23;19.08;;;5.38;;
71343;SDS011;59146;43.850;25.948;2023-04-24T08:03:49;20.23;;;5.95;;
71343;SDS011;59146;43.850;25.948;2023-04-24T08:06:14;29.00;;;5.57;;
71343;SDS011;59146;43.850;25.948;2023-04-24T08:08:40;16.75;;;4.25;;
71343;SDS011;59146;43.850;25.948;2023-04-24T08:11:05;17.42;;;4.93;;
71343;SDS011;59146;43.850;25.948;2023-04-24T08:13:31;27.92;;;5.72;;
71343;SDS011;59146;43.850;25.948;2023-04-24T08:15:56;25.13;;;5.10;;
71343;SDS011;59146;43.850;25.948;2023-04-24T08:18:22;10.57;;;4.18;;
71343;SDS011;59146;43.850;25.948;2023-04-24T08:20:47;38.10;;;6.28;;
71343;SDS011;59146;43.850;25.948;2023-04-24T08:23:13;7.70;;;4.30;;
71343;SDS011;59146;43.850;25.948;2023-04-24T08:25:39;16.02;;;4.95;;
71343;SDS011;59146;43.850;25.948;2023-04-24T08:28:05;18.25;;;5.35;;
71343;SDS011;59146;43.850;25.948;2023-04-24T08:30:31;23.10;;;5.05;;
71343;SDS011;59146;43.850;25.948;2023-04-24T08:32:56;10.55;;;4.28;;
71343;SDS011;59146;43.850;25.948;2023-04-24T08:35:22;15.10;;;4.53;;
71343;SDS011;59146;43.850;25.948;2023-04-24T08:37:48;15.15;;;5.25;;
71343;SDS011;59146;43.850;25.948;2023-04-24T08:40:14;21.58;;;5.07;;
71343;SDS011;59146;43.850;25.948;2023-04-24T08:42:41;16.63;;;4.45;;
71343;SDS011;59146;43.850;25.948;2023-04-24T08:45:09;15.73;;;4.60;;
71343;SDS011;59146;43.850;25.948;2023-04-24T08:47:35;30.80;;;12.55;;
71343;SDS011;59146;43.850;25.948;2023-04-24T08:50:03;13.57;;;5.45;;
71343;SDS011;59146;43.850;25.948;2023-04-24T08:52:32;11.60;;;5.05;;
71343;SDS011;59146;43.850;25.948;2023-04-24T08:54:57;19.75;;;4.95;;
71343;SDS011;59146;43.850;25.948;2023-04-24T08:57:24;15.20;;;4.82;;
71343;SDS011;59146;43.850;25.948;2023-04-24T08:59:51;12.32;;;4.10;;
71343;SDS011;59146;43.850;25.948;2023-04-24T09:02:18;20.20;;;5.30;;
71343;SDS011;59146;43.850;25.948;2023-04-24T09:04:44;18.38;;;5.35;;
71343;SDS011;59146;43.850;25.948;2023-04-24T09:07:12;10.18;;;3.40;;
71343;SDS011;59146;43.850;25.948;2023-04-24T09:09:39;11.07;;;3.78;;
71343;SDS011;59146;43.850;25.948;2023-04-24T09:12:06;20.88;;;4.43;;
71343;SDS011;59146;43.850;25.948;2023-04-24T09:14:34;13.75;;;4.05;;
71343;SDS011;59146;43.850;25.948;2023-04-24T09:17:01;12.45;;;4.28;;
71343;SDS011;59146;43.850;25.948;2023-04-24T09:19:27;13.48;;;4.60;;
71343;SDS011;59146;43.850;25.948;2023-04-24T09:21:52;13.00;;;4.43;;
71343;SDS011;59146;43.850;25.948;2023-04-24T09:24:20;11.00;;;4.47;;
71343;SDS011;59146;43.850;25.948;2023-04-24T09:26:48;13.25;;;4.55;;
71343;SDS011;59146;43.850;25.948;2023-04-24T09:29:15;17.08;;;4.00;;
71343;SDS011;59146;43.850;25.948;2023-04-24T09:31:42;16.35;;;4.75;;
71343;SDS011;59146;43.850;25.948;2023-04-24T09:34:07;12.55;;;4.20;;
71343;SDS011;59146;43.850;25.948;2023-04-24T09:36:41;12.10;;;4.10;;
71343;SDS011;59146;43.850;25.948;2023-04-24T09:39:08;15.77;;;4.55;;
71343;SDS011;59146;43.850;25.948;2023-04-24T09:41:45;10.57;;;4.20;;
71343;SDS011;59146;43.850;25.948;2023-04-24T09:44:16;15.43;;;4.18;;
71343;SDS011;59146;43.850;25.948;2023-04-24T09:46:48;11.77;;;4.00;;
71343;SDS011;59146;43.850;25.948;2023-04-24T09:49:16;12.45;;;4.53;;
71343;SDS011;59146;43.850;25.948;2023-04-24T09:51:45;13.07;;;4.32;;
71343;SDS011;59146;43.850;25.948;2023-04-24T09:54:13;7.03;;;3.85;;
71343;SDS011;59146;43.850;25.948;2023-04-24T09:56:44;10.88;;;3.80;;
71343;SDS011;59146;43.850;25.948;2023-04-24T09:59:11;6.67;;;3.47;;
71343;SDS011;59146;43.850;25.948;2023-04-24T10:01:37;11.13;;;3.80;;
71343;SDS011;59146;43.850;25.948;2023-04-24T10:04:03;8.88;;;3.78;;
71343;SDS011;59146;43.850;25.948;2023-04-24T10:06:35;17.95;;;5.40;;
71343;SDS011;59146;43.850;25.948;2023-04-24T10:09:01;14.85;;;4.28;;
71343;SDS011;59146;43.850;25.948;2023-04-24T10:11:28;6.70;;;3.92;;
71343;SDS011;59146;43.850;25.948;2023-04-24T10:13:55;7.28;;;3.55;;
71343;SDS011;59146;43.850;25.948;2023-04-24T10:16:22;12.18;;;3.60;;
71343;SDS011;59146;43.850;25.948;2023-04-24T10:18:48;13.52;;;3.88;;
71343;SDS011;59146;43.850;25.948;2023-04-24T10:21:14;16.45;;;3.72;;
71343;SDS011;59146;43.850;25.948;2023-04-24T10:23:41;14.00;;;4.13;;
71343;SDS011;59146;43.850;25.948;2023-04-24T10:26:12;8.43;;;4.00;;
71343;SDS011;59146;43.850;25.948;2023-04-24T10:28:43;6.22;;;3.40;;
71343;SDS011;59146;43.850;25.948;2023-04-24T10:31:10;8.00;;;3.30;;
71343;SDS011;59146;43.850;25.948;2023-04-24T10:33:36;11.50;;;4.30;;
71343;SDS011;59146;43.850;25.948;2023-04-24T10:36:06;10.77;;;3.40;;
71343;SDS011;59146;43.850;25.948;2023-04-24T10:38:34;10.57;;;3.55;;
71343;SDS011;59146;43.850;25.948;2023-04-24T10:41:08;16.10;;;3.72;;
71343;SDS011;59146;43.850;25.948;2023-04-24T10:43:39;17.35;;;3.47;;
71343;SDS011;59146;43.850;25.948;2023-04-24T10:46:05;9.57;;;3.75;;
71343;SDS011;59146;43.850;25.948;2023-04-24T10:48:31;13.15;;;3.97;;
71343;SDS011;59146;43.850;25.948;2023-04-24T10:50:57;15.35;;;4.07;;
71343;SDS011;59146;43.850;25.948;2023-04-24T10:53:24;10.05;;;3.85;;
71343;SDS011;59146;43.850;25.948;2023-04-24T10:56:08;10.40;;;4.35;;
71343;SDS011;59146;43.850;25.948;2023-04-24T10:58:42;13.65;;;4.45;;
71343;SDS011;59146;43.850;25.948;2023-04-24T11:01:24;15.07;;;5.07;;
71343;SDS011;59146;43.850;25.948;2023-04-24T11:03:54;10.93;;;3.63;;
71343;SDS011;59146;43.850;25.948;2023-04-24T11:06:36;11.15;;;3.80;;
71343;SDS011;59146;43.850;25.948;2023-04-24T11:09:03;4.47;;;3.20;;
71343;SDS011;59146;43.850;25.948;2023-04-24T11:11:31;8.35;;;3.60;;
71343;SDS011;59146;43.850;25.948;2023-04-24T11:16:27;9.98;;;4.07;;
71343;SDS011;59146;43.850;25.948;2023-04-24T11:19:09;10.60;;;3.90;;
71343;SDS011;59146;43.850;25.948;2023-04-24T11:21:43;14.73;;;4.32;;
71343;SDS011;59146;43.850;25.948;2023-04-24T11:26:48;36.13;;;4.13;;
71343;SDS011;59146;43.850;25.948;2023-04-24T11:29:13;13.07;;;3.63;;
71343;SDS011;59146;43.850;25.948;2023-04-24T11:31:39;12.30;;;4.20;;
71343;SDS011;59146;43.850;25.948;2023-04-24T11:34:10;9.75;;;3.88;;
71343;SDS011;59146;43.850;25.948;2023-04-24T11:36:38;4.30;;;3.20;;
71343;SDS011;59146;43.850;25.948;2023-04-24T11:39:04;9.30;;;4.18;;
71343;SDS011;59146;43.850;25.948;2023-04-24T11:41:30;6.53;;;3.72;;
71343;SDS011;59146;43.850;25.948;2023-04-24T11:43:56;14.35;;;4.25;;
71343;SDS011;59146;43.850;25.948;2023-04-24T11:46:22;16.80;;;5.03;;
71343;SDS011;59146;43.850;25.948;2023-04-24T11:48:48;6.40;;;3.30;;
71343;SDS011;59146;43.850;25.948;2023-04-24T11:51:13;16.73;;;5.03;;
71343;SDS011;59146;43.850;25.948;2023-04-24T11:53:39;6.82;;;3.35;;
71343;SDS011;59146;43.850;25.948;2023-04-24T11:56:05;17.50;;;4.70;;
71343;SDS011;59146;43.850;25.948;2023-04-24T11:58:37;7.70;;;3.60;;
71343;SDS011;59146;43.850;25.948;2023-04-24T12:01:04;13.48;;;3.65;;
71343;SDS011;59146;43.850;25.948;2023-04-24T12:03:30;10.25;;;4.43;;
71343;SDS011;59146;43.850;25.948;2023-04-24T12:06:06;8.77;;;4.13;;
71343;SDS011;59146;43.850;25.948;2023-04-24T12:08:35;9.48;;;4.03;;
71343;SDS011;59146;43.850;25.948;2023-04-24T12:11:01;10.23;;;4.55;;
71343;SDS011;59146;43.850;25.948;2023-04-24T12:13:28;8.38;;;4.07;;
71343;SDS011;59146;43.850;25.948;2023-04-24T12:15:53;9.15;;;4.32;;
71343;SDS011;59146;43.850;25.948;2023-04-24T12:18:21;16.02;;;4.78;;
71343;SDS011;59146;43.850;25.948;2023-04-24T12:20:47;8.43;;;4.20;;
71343;SDS011;59146;43.850;25.948;2023-04-24T12:23:13;9.90;;;4.60;;
71343;SDS011;59146;43.850;25.948;2023-04-24T12:25:38;10.43;;;4.20;;
71343;SDS011;59146;43.850;25.948;2023-04-24T12:30:33;10.40;;;4.68;;
71343;SDS011;59146;43.850;25.948;2023-04-24T12:33:02;8.02;;;4.25;;
71343;SDS011;59146;43.850;25.948;2023-04-24T12:35:28;6.18;;;4.05;;
71343;SDS011;59146;43.850;25.948;2023-04-24T12:37:59;10.27;;;4.95;;
71343;SDS011;59146;43.850;25.948;2023-04-24T12:40:31;5.55;;;4.50;;
71343;SDS011;59146;43.850;25.948;2023-04-24T12:42:56;14.75;;;4.70;;
71343;SDS011;59146;43.850;25.948;2023-04-24T12:45:22;11.07;;;4.28;;
71343;SDS011;59146;43.850;25.948;2023-04-24T12:47:49;9.38;;;4.40;;
71343;SDS011;59146;43.850;25.948;2023-04-24T12:50:14;10.77;;;5.07;;
71343;SDS011;59146;43.850;25.948;2023-04-24T12:52:40;8.82;;;4.78;;
71343;SDS011;59146;43.850;25.948;2023-04-24T12:55:07;12.75;;;5.25;;
71343;SDS011;59146;43.850;25.948;2023-04-24T12:57:34;22.23;;;5.63;;
71343;SDS011;59146;43.850;25.948;2023-04-24T13:00:01;9.35;;;5.13;;
71343;SDS011;59146;43.850;25.948;2023-04-24T13:02:27;9.60;;;4.68;;
71343;SDS011;59146;43.850;25.948;2023-04-24T13:04:56;10.00;;;5.25;;
71343;SDS011;59146;43.850;25.948;2023-04-24T13:07:22;11.18;;;5.60;;
71343;SDS011;59146;43.850;25.948;2023-04-24T13:09:47;11.27;;;4.75;;
71343;SDS011;59146;43.850;25.948;2023-04-24T13:12:14;9.13;;;4.55;;
71343;SDS011;59146;43.850;25.948;2023-04-24T13:14:40;9.43;;;5.35;;
71343;SDS011;59146;43.850;25.948;2023-04-24T13:17:06;14.52;;;4.82;;
71343;SDS011;59146;43.850;25.948;2023-04-24T13:19:42;14.25;;;4.53;;
71343;SDS011;59146;43.850;25.948;2023-04-24T13:22:09;23.23;;;6.85;;
71343;SDS011;59146;43.850;25.948;2023-04-24T13:24:36;8.52;;;4.25;;
71343;SDS011;59146;43.850;25.948;2023-04-24T13:27:03;12.30;;;4.45;;
71343;SDS011;59146;43.850;25.948;2023-04-24T13:29:28;11.25;;;4.53;;
71343;SDS011;59146;43.850;25.948;2023-04-24T13:31:54;7.00;;;4.22;;
71343;SDS011;59146;43.850;25.948;2023-04-24T13:34:20;5.40;;;4.10;;
71343;SDS011;59146;43.850;25.948;2023-04-24T13:36:46;10.48;;;4.22;;
71343;SDS011;59146;43.850;25.948;2023-04-24T13:39:12;8.85;;;4.22;;
71343;SDS011;59146;43.850;25.948;2023-04-24T13:41:37;9.38;;;4.32;;
71343;SDS011;59146;43.850;25.948;2023-04-24T13:44:03;7.70;;;4.22;;
71343;SDS011;59146;43.850;25.948;2023-04-24T13:46:29;7.30;;;4.22;;
71343;SDS011;59146;43.850;25.948;2023-04-24T13:48:56;9.05;;;4.25;;
71343;SDS011;59146;43.850;25.948;2023-04-24T13:51:22;5.95;;;4.80;;
71343;SDS011;59146;43.850;25.948;2023-04-24T13:53:48;10.80;;;4.88;;
71343;SDS011;59146;43.850;25.948;2023-04-24T13:56:14;8.98;;;4.63;;
71343;SDS011;59146;43.850;25.948;2023-04-24T13:58:39;7.40;;;4.35;;
71343;SDS011;59146;43.850;25.948;2023-04-24T14:01:05;9.35;;;4.85;;
71343;SDS011;59146;43.850;25.948;2023-04-24T14:03:31;11.68;;;4.07;;
71343;SDS011;59146;43.850;25.948;2023-04-24T14:05:58;10.90;;;4.72;;
71343;SDS011;59146;43.850;25.948;2023-04-24T14:08:23;14.77;;;5.63;;
71343;SDS011;59146;43.850;25.948;2023-04-24T14:10:49;25.65;;;6.82;;
71343;SDS011;59146;43.850;25.948;2023-04-24T14:13:15;11.95;;;5.22;;
71343;SDS011;59146;43.850;25.948;2023-04-24T14:15:41;24.75;;;6.05;;
71343;SDS011;59146;43.850;25.948;2023-04-24T14:18:06;17.70;;;5.47;;
71343;SDS011;59146;43.850;25.948;2023-04-24T14:20:32;15.77;;;6.00;;
71343;SDS011;59146;43.850;25.948;2023-04-24T14:22:57;17.60;;;5.70;;
71343;SDS011;59146;43.850;25.948;2023-04-24T14:25:25;23.27;;;4.88;;
71343;SDS011;59146;43.850;25.948;2023-04-24T14:27:51;13.57;;;4.47;;